Latest Weather Observations for Strahan

IDT60801

Issued at 4:31 pm EST Thursday 13 August 2020 (issued every 10 minutes, with the page automatically refreshed every 10 minutes)

About weather observations | Map of weather stations | Latest weather observations for TAS | Other Formats
Station Details ID: 097072 Name: STRAHAN AERODROME Lat: -42.16 Lon: 145.29 Height: 21.0 m
Data from the previous 72 hours. | See also: Recent months at Strahan
Date/Time
EST
Temp
°C
App
Temp
°C
Dew
Point
°C
Rel
Hum
%
Delta-T
°C
Wind Press
QNH
hPa
Press
MSL
hPa
Rain since
9am
mm
Dir  Spd
km/h
Gust
km/h
Spd
kts
Gust
kts
13/04:30pm 10.8 9.3 10.5 98 0.2 SSE 9 11 5 6 1010.2 1010.3 3.2
13/04:00pm 11.2 9.8 10.9 98 0.2 SSE 9 11 5 6 1010.2 1010.3 3.2
13/03:30pm 10.9 9.8 10.6 98 0.2 SSE 7 11 4 6 1010.2 1010.3 3.2
13/03:00pm 10.7 9.1 10.2 97 0.3 SE 9 13 5 7 1010.1 1010.2 3.2
13/02:30pm 10.4 8.3 9.9 97 0.3 SSE 11 15 6 8 1009.9 1010.0 3.0
13/02:00pm 10.5 8.8 10.0 97 0.3 S 9 13 5 7 1009.8 1009.9 2.6
13/01:30pm 10.7 8.7 10.2 97 0.3 SSE 11 15 6 8 1009.7 1009.8 2.2
13/01:00pm 10.6 9.0 10.1 97 0.3 SSE 9 13 5 7 1009.7 1009.8 2.0
13/12:30pm 10.6 9.3 10.1 97 0.3 SSE 7 11 4 6 1009.8 1009.9 2.0
13/12:00pm 10.3 8.2 9.8 97 0.3 SSE 11 15 6 8 1009.9 1010.0 2.0
13/11:30am 10.4 8.3 9.9 97 0.3 SSE 11 15 6 8 1010.3 1010.4 2.0
13/11:00am 9.7 7.5 9.2 97 0.2 SSE 11 15 6 8 1010.4 1010.5 1.8
13/10:30am 10.0 7.8 9.5 97 0.2 SE 11 15 6 8 1010.3 1010.4 1.4
13/10:00am 9.8 8.4 9.5 98 0.1 SSE 7 11 4 6 1010.5 1010.6 1.0
13/09:30am 9.7 7.8 9.2 97 0.2 S 9 11 5 6 1010.3 1010.4 0.6
13/09:00am 9.4 7.5 8.9 97 0.2 SSE 9 13 5 7 1010.1 1010.2 1.2
13/08:30am 9.5 7.6 9.0 97 0.2 SSE 9 11 5 6 1009.9 1010.0 1.2
13/08:00am 9.1 6.7 8.8 98 0.1 S 11 17 6 9 1009.5 1009.6 1.2
13/07:30am 8.6 6.5 8.2 97 0.2 S 9 15 5 8 1009.2 1009.3 0.8
13/07:00am 8.7 6.6 8.3 97 0.2 S 9 11 5 6 1009.0 1009.1 0.4
13/06:30am 8.5 6.7 8.1 97 0.2 S 7 9 4 5 1008.8 1008.9 0.2
13/06:00am 8.2 6.0 7.8 97 0.2 SW 9 11 5 6 1008.7 1008.8 0.2
13/05:30am 7.9 5.6 7.5 97 0.2 S 9 13 5 7 1008.4 1008.5 0.2
13/05:00am 8.1 6.4 7.7 97 0.2 SE 6 9 3 5 1008.2 1008.3 0.2
13/04:30am 8.5 6.9 8.1 97 0.2 SE 6 7 3 4 1008.1 1008.2 0.2
13/04:00am 8.3 6.5 7.9 97 0.2 ESE 7 9 4 5 1008.1 1008.2 0.2
13/03:30am 8.0 6.1 7.6 97 0.2 ESE 7 11 4 6 1008.0 1008.1 0.2
13/03:00am 8.4 7.9 8.0 97 0.2 CALM 0 0 0 0 1008.3 1008.4 0.2
13/02:30am 8.5 6.9 8.1 97 0.2 SE 6 7 3 4 1008.5 1008.6 0.2
13/02:00am 8.7 7.0 8.3 97 0.2 SE 7 9 4 5 1008.6 1008.7 0.2
13/01:30am 8.7 7.0 8.3 97 0.2 SSE 7 11 4 6 1008.3 1008.4 0.2
13/01:00am 8.8 7.2 8.2 96 0.3 ENE 6 7 3 4 1008.2 1008.3 0.2
13/12:30am 8.9 7.4 8.3 96 0.3 NE 6 6 3 3 1008.3 1008.4 0.0
13/12:00am 8.5 8.0 7.9 96 0.3 CALM 0 0 0 0 1008.3 1008.4 0.0
 
Date/Time
EST
Temp
°C
App
Temp
°C
Dew
Point
°C
Rel
Hum
%
Delta-T
°C
Wind Press
QNH
hPa
Press
MSL
hPa
Rain since
9am
mm
Dir  Spd
km/h
Gust
km/h
Spd
kts
Gust
kts
12/11:30pm 8.7 7.1 8.1 96 0.3 NE 6 9 3 5 1008.3 1008.4 0.0
12/11:00pm 8.3 6.4 7.5 95 0.4 ENE 7 11 4 6 1008.6 1008.7 0.0
12/10:30pm 8.7 6.6 8.1 96 0.3 NNE 9 13 5 7 1008.8 1008.9 0.0
12/10:00pm 8.1 6.4 7.5 96 0.3 ENE 6 9 3 5 1008.6 1008.7 0.0
12/09:30pm 8.4 6.4 7.3 93 0.5 ENE 7 9 4 5 1008.5 1008.6 0.0
12/09:00pm 8.8 6.9 6.6 86 1.0 ENE 6 7 3 4 1008.2 1008.3 0.0
12/08:30pm 10.3 8.1 7.7 84 1.2 N 9 11 5 6 1008.1 1008.2 0.0
12/08:00pm 10.6 8.8 7.8 83 1.4 NE 7 9 4 5 1007.9 1008.0 0.0
12/07:30pm 10.7 8.5 7.9 83 1.4 NNE 9 11 5 6 1007.6 1007.7 0.0
12/07:00pm 11.0 8.9 8.1 82 1.4 N 9 13 5 7 1007.1 1007.2 0.0
12/06:30pm 11.2 8.6 7.7 79 1.7 N 11 15 6 8 1006.9 1007.0 0.0
12/06:00pm 11.4 8.9 8.1 80 1.6 N 11 13 6 7 1006.6 1006.7 0.0
12/05:30pm 11.7 9.5 7.8 77 1.9 N 9 11 5 6 1006.4 1006.5 0.0
12/05:00pm 12.8 9.8 7.9 72 2.4 N 13 19 7 10 1006.2 1006.3 0.0
12/04:30pm 14.2 10.2 8.2 67 3.0 N 19 30 10 16 1006.2 1006.3 0.0
12/04:00pm 14.5 10.2 8.0 65 3.3 N 20 30 11 16 1006.3 1006.4 0.0
12/03:30pm 14.9 10.9 8.2 64 3.4 N 19 28 10 15 1006.2 1006.3 0.0
12/03:00pm 14.1 9.7 7.6 65 3.2 N 20 28 11 15 1006.2 1006.3 0.0
12/02:30pm 14.5 9.3 7.3 62 3.5 N 24 35 13 19 1006.4 1006.5 0.0
12/02:00pm 13.6 8.8 7.2 65 3.1 N 22 33 12 18 1006.5 1006.6 0.0
12/01:30pm 13.4 9.1 7.0 65 3.1 NNE 19 26 10 14 1006.6 1006.7 0.0
12/01:00pm 13.4 8.0 6.5 63 3.3 NNE 24 35 13 19 1006.8 1006.9 0.0
12/12:30pm 13.1 8.4 6.2 63 3.3 NNE 20 28 11 15 1007.1 1007.2 0.0
12/12:00pm 13.1 8.0 5.8 61 3.4 NNE 22 35 12 19 1007.6 1007.7 0.0
12/11:30am 12.9 7.0 5.8 62 3.3 NNE 26 43 14 23 1008.0 1008.1 0.0
12/11:00am 12.6 7.0 5.5 62 3.3 NNE 24 35 13 19 1008.2 1008.3 0.0
12/10:30am 12.3 7.6 5.9 65 3.0 N 20 30 11 16 1008.5 1008.6 0.0
12/10:00am 12.2 7.0 5.6 64 3.1 NNE 22 33 12 18 1008.6 1008.7 0.0
12/09:30am 11.7 7.0 5.3 65 2.9 N 19 30 10 16 1008.9 1009.0 0.0
12/09:00am 11.1 7.6 5.6 69 2.5 N 13 20 7 11 1009.2 1009.3 0.2
12/08:30am 10.9 7.4 5.4 69 2.5 NE 13 20 7 11 1009.1 1009.2 0.2
12/08:00am 10.6 6.7 5.4 70 2.4 NE 15 19 8 10 1009.2 1009.3 0.2
12/07:30am 10.6 6.7 5.4 70 2.4 NNE 15 20 8 11 1009.3 1009.4 0.2
12/07:00am 10.5 6.7 5.7 72 2.2 NNE 15 20 8 11 1009.4 1009.5 0.2
12/06:30am 10.5 6.3 5.9 73 2.1 NNE 17 26 9 14 1009.3 1009.4 0.0
12/06:00am 10.5 6.9 6.6 77 1.8 NNE 15 20 8 11 1009.5 1009.6 0.0
12/05:30am 11.1 6.3 5.4 68 2.6 NNE 20 33 11 18 1009.6 1009.7 0.0
12/05:00am 11.1 5.8 5.2 67 2.7 NNE 22 37 12 20 1009.8 1009.9 0.0
12/04:30am 11.2 5.9 5.1 66 2.8 NNE 22 35 12 19 1009.9 1010.0 0.0
12/04:00am 11.3 6.5 4.7 64 3.0 NNE 19 33 10 18 1009.9 1010.0 0.0
12/03:30am 11.3 6.5 4.7 64 3.0 NNE 19 28 10 15 1010.0 1010.1 0.0
12/03:00am 10.8 7.2 4.9 67 2.7 NNE 13 17 7 9 1010.4 1010.5 0.0
12/02:30am 10.9 7.0 5.2 68 2.6 NNE 15 20 8 11 1010.9 1011.0 0.0
12/02:00am 11.0 7.1 5.3 68 2.6 N 15 20 8 11 1011.2 1011.3 0.0
12/01:30am 11.2 6.6 5.5 68 2.6 NNE 19 28 10 15 1011.3 1011.4 0.0
12/01:00am 11.2 7.8 5.7 69 2.5 N 13 20 7 11 1011.5 1011.6 0.0
12/12:30am 11.6 6.9 5.9 68 2.7 NNE 20 35 11 19 1011.5 1011.6 0.0
12/12:00am 11.5 6.4 5.8 68 2.7 NNE 22 35 12 19 1011.6 1011.7 0.0
 
Date/Time
EST
Temp
°C
App
Temp
°C
Dew
Point
°C
Rel
Hum
%
Delta-T
°C
Wind Press
QNH
hPa
Press
MSL
hPa
Rain since
9am
mm
Dir  Spd
km/h
Gust
km/h
Spd
kts
Gust
kts
11/11:30pm 11.4 6.6 5.7 68 2.6 NNE 20 33 11 18 1011.5 1011.6 0.0
11/11:00pm 11.2 6.4 5.7 69 2.5 NNE 20 33 11 18 1011.6 1011.7 0.0
11/10:30pm 10.9 6.3 5.4 69 2.5 NE 19 28 10 15 1012.1 1012.2 0.0
11/10:00pm 11.0 5.8 5.3 68 2.6 NNE 22 39 12 21 1012.4 1012.5 0.0
11/09:30pm 11.2 5.2 5.3 67 2.7 NNE 26 41 14 22 1012.6 1012.7 0.0
11/09:00pm 11.1 6.2 5.0 66 2.8 NNE 20 30 11 16 1012.6 1012.7 0.0
11/08:30pm 11.0 6.7 5.1 67 2.7 NNE 17 22 9 12 1012.5 1012.6 0.0
11/08:00pm 10.6 7.0 5.2 69 2.5 NNE 13 17 7 9 1012.5 1012.6 0.0
11/07:30pm 10.8 7.2 5.1 68 2.6 NE 13 19 7 10 1012.2 1012.3 0.0
11/07:00pm 11.4 7.1 5.3 66 2.8 NNE 17 24 9 13 1012.3 1012.4 0.0
11/06:30pm 11.8 7.0 5.4 65 3.0 NNE 20 28 11 15 1012.2 1012.3 0.0
11/06:00pm 11.8 7.2 5.7 66 2.8 NNE 19 24 10 13 1012.3 1012.4 0.0
11/05:30pm 12.0 7.8 5.6 65 3.0 NNE 17 24 9 13 1012.0 1012.1 0.0
11/05:00pm 12.8 8.6 5.7 62 3.3 N 17 22 9 12 1012.4 1012.5 0.0
11/04:30pm 13.2 9.0 5.6 60 3.6 NNE 17 24 9 13 1012.4 1012.5 0.0
11/04:00pm 13.7 9.6 6.1 60 3.6 N 17 26 9 14 1012.5 1012.6 0.0
11/03:30pm 14.9 10.2 6.0 55 4.3 N 20 30 11 16 1012.6 1012.7 0.0
11/03:00pm 16.0 10.9 6.2 52 4.8 N 22 32 12 17 1012.7 1012.8 0.0
11/02:30pm 15.6 11.1 6.3 54 4.5 N 19 30 10 16 1013.1 1013.2 0.0
11/02:00pm 14.7 9.6 5.8 55 4.2 N 22 35 12 19 1013.6 1013.7 0.0
11/01:30pm 15.2 9.6 5.4 52 4.7 N 24 37 13 20 1013.8 1013.9 0.0
11/01:00pm 15.8 11.1 6.0 52 4.7 N 20 26 11 14 1014.2 1014.3 0.0
11/12:30pm 15.0 9.8 5.5 53 4.5 N 22 32 12 17 1014.7 1014.8 0.0
11/12:00pm 14.9 10.1 5.4 53 4.5 N 20 32 11 17 1015.3 1015.4 0.0
11/11:30am 13.1 8.7 5.0 58 3.8 NNE 17 24 9 13 1015.7 1015.7 0.0
11/11:00am 12.2 7.6 5.4 63 3.1 NNE 19 26 10 14 1016.1 1016.1 0.0
11/10:30am 10.3 6.3 5.1 70 2.4 NE 15 24 8 13 1016.2 1016.2 0.0
11/10:00am 9.0 4.5 4.4 73 2.0 NNE 17 24 9 13 1016.7 1016.7 0.0
11/09:30am 8.3 3.8 4.3 76 1.7 NNE 17 24 9 13 1016.7 1016.7 0.0
11/09:00am 6.9 2.3 3.7 80 1.4 NE 17 24 9 13 1017.0 1017.0 0.2
11/08:30am 6.1 1.5 3.8 85 1.0 NNE 17 24 9 13 1017.2 1017.2 0.2
11/08:00am 4.6 0.4 3.7 94 0.4 NE 15 20 8 11 1017.4 1017.4 0.2
11/07:30am 2.9 -0.4 2.3 96 0.2 NE 9 13 5 7 1017.4 1017.4 0.2
11/07:00am 2.0 -0.9 1.3 95 0.3 ENE 6 9 3 5 1017.7 1017.7 0.2
11/06:30am 2.1 -1.4 1.5 96 0.2 NE 9 11 5 6 1017.7 1017.7 0.2
11/06:00am 1.9 -2.0 1.3 96 0.2 NE 11 13 6 7 1017.9 1017.9 0.2
11/05:30am 1.8 -2.5 1.2 96 0.2 NNE 13 17 7 9 1018.4 1018.4 0.2
11/05:00am 1.5 -2.4 0.9 96 0.2 NE 11 15 6 8 1018.3 1018.3 0.2
11/04:30am 1.3 -3.0 0.7 96 0.2 NE 13 15 7 8 1018.5 1018.5 0.2
11/04:00am 1.4 -2.6 0.8 96 0.2 NNE 11 13 6 7 1018.5 1018.5 0.2
11/03:30am 1.3 -1.9 0.7 96 0.2 NE 7 9 4 5 1018.7 1018.7 0.2
11/03:00am 0.3 -2.9 -0.3 96 0.2 ENE 6 7 3 4 1018.6 1018.6 0.2
11/02:30am 2.6 -0.2 2.0 96 0.2 ENE 6 9 3 5 1018.5 1018.5 0.2
11/02:00am 1.5 -1.5 0.9 96 0.2 NNE 6 7 3 4 1018.6 1018.6 0.2
11/01:30am 3.4 0.5 2.8 96 0.2 NE 7 9 4 5 1018.5 1018.5 0.2
11/01:00am 3.2 -0.1 2.6 96 0.2 NNE 9 11 5 6 1019.0 1019.0 0.2
11/12:30am 3.8 0.3 3.4 97 0.2 NNE 11 13 6 7 1019.1 1019.1 0.2
11/12:00am 3.2 0.3 2.6 96 0.2 NNE 7 11 4 6 1019.6 1019.6 0.2
 
Date/Time
EST
Temp
°C
App
Temp
°C
Dew
Point
°C
Rel
Hum
%
Delta-T
°C
Wind Press
QNH
hPa
Press
MSL
hPa
Rain since
9am
mm
Dir  Spd
km/h
Gust
km/h
Spd
kts
Gust
kts
10/11:30pm 4.2 1.1 3.6 96 0.2 NNE 9 13 5 7 1019.7 1019.7 0.2
10/11:00pm 4.5 1.5 3.9 96 0.2 NNE 9 11 5 6 1020.3 1020.3 0.0
10/10:30pm 4.7 2.3 4.1 96 0.3 NE 6 7 3 4 1020.5 1020.5 0.0
10/10:00pm 5.3 3.0 4.7 96 0.3 ENE 6 9 3 5 1021.0 1021.0 0.0
10/09:30pm 5.4 2.1 4.8 96 0.3 NNE 11 15 6 8 1021.2 1021.2 0.0
10/09:00pm 4.8 1.4 4.2 96 0.3 NNE 11 13 6 7 1021.3 1021.3 0.0
10/08:30pm 4.2 1.1 3.6 96 0.2 NNE 9 13 5 7 1021.1 1021.1 0.0
10/08:00pm 4.5 1.5 3.9 96 0.2 NE 9 11 5 6 1021.3 1021.3 0.0
10/07:30pm 4.5 1.8 3.9 96 0.3 N 7 9 4 5 1021.6 1021.6 0.0
10/07:00pm 4.0 0.8 3.3 95 0.3 NNE 9 13 5 7 1021.4 1021.4 0.0
10/06:30pm 6.0 2.8 5.1 94 0.4 NNE 11 13 6 7 1021.0 1021.0 0.0
10/06:00pm 6.8 4.5 4.8 87 0.9 NNW 6 7 3 4 1021.1 1021.1 0.0
10/05:30pm 8.0 5.8 5.1 82 1.3 WSW 6 7 3 4 1021.1 1021.1 0.0
10/05:00pm 9.3 6.8 4.9 74 2.0 WSW 7 9 4 5 1021.2 1021.2 0.0

Other formats

Comma delimited format used in spreadsheet applications
http://www.bom.gov.au/fwo/IDT60801/IDT60801.94956.axf

JavaScript Object Notation format (JSON) in row-major order
http://www.bom.gov.au/fwo/IDT60801/IDT60801.94956.json

Data quality

Most of these data are generated automatically and are frequently updated. Quality checks on data are not normally performed. It is possible for incorrect values to appear. Refer to information at About Latest Weather Observations and please check the disclaimer before using these data.